Time;durP1;ratioP1;P1;durP2;ratioP2;P2;SDS_P1;SDS_P2;PMS_P1;PMS_P2;Temp;Humidity;BMP_temperature;BMP_pressure;BME280_temperature;BME280_humidity;BME280_pressure;Samples;Min_cycle;Max_cycle;Signal;HPM_P1;HPM_P2
2024/01/26 00:01:57;;;;;;;14.40;8.48;;;;;;;9.40;75.28;99934.81;5090326;28;20024;-46
2024/01/26 00:04:23;;;;;;;10.75;8.65;;;;;;;9.36;75.82;99928.28;5091659;28;20020;-46
2024/01/26 00:06:49;;;;;;;12.02;8.15;;;;;;;9.40;76.11;99926.16;5091567;28;20024;-46
2024/01/26 00:09:15;;;;;;;14.30;6.55;;;;;;;9.57;75.60;99921.75;5091588;28;20032;-47
2024/01/26 00:11:43;;;;;;;10.57;7.57;;;;;;;9.70;75.29;99922.09;5091797;28;20394;-47
2024/01/26 00:14:09;;;;;;;10.55;7.65;;;;;;;9.79;74.66;99926.31;5091478;28;20409;-47
2024/01/26 00:16:39;;;;;;;11.65;7.63;;;;;;;9.67;74.21;99922.38;5107088;28;20030;-47
2024/01/26 00:19:05;;;;;;;11.40;7.90;;;;;;;9.71;74.91;99918.47;5091510;28;20021;-47
2024/01/26 00:21:31;;;;;;;11.07;7.43;;;;;;;10.00;74.08;99922.41;5107068;28;20021;-47
2024/01/26 00:23:58;;;;;;;12.50;7.60;;;;;;;10.07;73.08;99920.72;5091466;28;20120;-47
2024/01/26 00:26:24;;;;;;;10.20;7.05;;;;;;;10.07;73.03;99928.59;5091314;28;20021;-47
2024/01/26 00:28:50;;;;;;;11.10;7.10;;;;;;;10.08;73.02;99922.38;5091680;28;20036;-46
2024/01/26 00:31:19;;;;;;;10.70;8.80;;;;;;;10.11;72.80;99918.59;5091794;28;20027;-47
2024/01/26 00:33:45;;;;;;;10.93;7.35;;;;;;;10.17;72.49;99913.50;5110863;28;20028;-47
2024/01/26 00:36:13;;;;;;;11.77;7.60;;;;;;;10.28;72.51;99914.13;5110458;28;20051;-47
2024/01/26 00:38:39;;;;;;;15.80;9.93;;;;;;;10.41;72.69;99913.66;5095105;28;20028;-46
2024/01/26 00:41:05;;;;;;;12.68;7.10;;;;;;;10.55;72.75;99915.56;5110621;28;20540;-47
2024/01/26 00:43:31;;;;;;;11.02;7.38;;;;;;;10.59;72.33;99909.00;5094937;28;20039;-47
2024/01/26 00:45:57;;;;;;;10.45;6.78;;;;;;;10.71;72.60;99907.63;5110554;28;20059;-46
2024/01/26 00:48:23;;;;;;;14.48;7.10;;;;;;;10.83;71.67;99913.31;5094839;28;20028;-47
2024/01/26 00:50:54;;;;;;;15.93;10.15;;;;;;;11.02;71.32;99913.88;5094735;28;20413;-47
2024/01/26 00:53:21;;;;;;;12.43;7.55;;;;;;;11.00;70.19;99898.28;5094839;28;20397;-47
2024/01/26 00:55:48;;;;;;;11.50;8.45;;;;;;;10.96;69.15;99892.53;5110392;28;20440;-47
2024/01/26 00:58:14;;;;;;;10.38;6.70;;;;;;;10.79;69.09;99897.06;5094706;28;20024;-47
2024/01/26 01:00:39;;;;;;;11.35;7.55;;;;;;;10.70;69.72;99913.84;5110276;28;20028;-46
2024/01/26 01:03:05;;;;;;;9.45;7.15;;;;;;;10.77;70.11;99901.69;5093359;28;20553;-46
2024/01/26 01:05:31;;;;;;;14.27;8.10;;;;;;;10.90;69.92;99901.13;5094470;28;20478;-46
2024/01/26 01:07:57;;;;;;;9.68;7.05;;;;;;;10.90;69.35;99893.22;5094500;28;20051;-46
2024/01/26 01:10:23;;;;;;;9.90;6.13;;;;;;;10.72;68.21;99895.31;5093090;28;20398;-46
2024/01/26 01:12:49;;;;;;;11.25;7.22;;;;;;;10.44;69.66;99908.84;5094316;28;20081;-47
2024/01/26 01:15:17;;;;;;;8.80;6.70;;;;;;;10.35;70.91;99917.75;5094289;28;20032;-46
2024/01/26 01:17:44;;;;;;;9.55;6.60;;;;;;;10.58;71.63;99910.81;5094192;28;20024;-46
2024/01/26 01:20:11;;;;;;;11.60;7.55;;;;;;;10.84;71.12;99907.06;5092872;28;20111;-46
2024/01/26 01:22:41;;;;;;;17.45;9.90;;;;;;;10.93;69.83;99907.84;5109947;28;20020;-46
2024/01/26 01:25:09;;;;;;;9.05;6.82;;;;;;;10.73;69.37;99908.25;5094107;28;20111;-47
2024/01/26 01:27:38;;;;;;;12.60;7.90;;;;;;;10.67;70.23;99908.13;5109802;28;20023;-46
2024/01/26 01:30:05;;;;;;;13.40;7.93;;;;;;;10.66;70.47;99912.56;5094092;28;20066;-46
2024/01/26 01:32:31;;;;;;;11.88;6.68;;;;;;;10.88;71.56;99915.41;5075895;28;20097;-46
2024/01/26 01:34:57;;;;;;;10.15;7.70;;;;;;;11.10;70.54;99913.81;5094224;28;20447;-46
2024/01/26 01:37:22;;;;;;;10.15;6.28;;;;;;;11.16;70.16;99908.69;5093720;28;20056;-46
2024/01/26 01:39:49;;;;;;;10.60;5.88;;;;;;;11.23;68.36;99908.00;5109522;28;20069;-46
2024/01/26 01:42:15;;;;;;;11.10;6.97;;;;;;;11.00;69.16;99919.28;5093779;28;20486;-47
2024/01/26 01:44:45;;;;;;;10.13;6.60;;;;;;;11.03;70.26;99934.72;5091975;28;20031;-47
2024/01/26 01:47:11;;;;;;;6.85;5.00;;;;;;;11.08;70.13;99932.38;5109267;28;20028;-47
2024/01/26 01:49:38;;;;;;;7.32;4.35;;;;;;;11.13;70.16;99924.81;5109418;28;20533;-47
2024/01/26 01:52:07;;;;;;;8.02;4.82;;;;;;;11.16;70.76;99939.41;5093865;28;20062;-47
2024/01/26 01:54:33;;;;;;;11.27;6.63;;;;;;;11.36;71.33;99953.72;5093523;28;20069;-47
2024/01/26 01:57:02;;;;;;;9.32;5.93;;;;;;;11.75;70.83;99947.56;5109246;28;20440;-46
2024/01/26 01:59:28;;;;;;;8.02;5.70;;;;;;;12.07;69.39;99943.00;5093537;28;20016;-47
2024/01/26 02:01:54;;;;;;;10.30;5.80;;;;;;;12.15;68.95;99944.75;5092112;28;20024;-47
2024/01/26 02:04:20;;;;;;;7.82;5.40;;;;;;;12.23;68.47;99942.03;5093385;28;20024;-47
2024/01/26 02:07:03;;;;;;;9.35;5.90;;;;;;;12.15;67.35;99950.88;5093306;28;20073;-47
2024/01/26 02:09:30;;;;;;;8.50;6.13;;;;;;;12.10;67.67;99961.09;5093264;28;20112;-47
2024/01/26 02:11:56;;;;;;;11.38;7.53;;;;;;;12.01;67.14;99959.53;5109245;28;20633;-46
2024/01/26 02:14:23;;;;;;;10.70;7.05;;;;;;;11.84;67.37;99969.34;5108869;28;20024;-46
2024/01/26 02:16:59;;;;;;;9.75;5.68;;;;;;;11.75;67.69;99978.28;5093172;28;20040;-46
2024/01/26 02:19:26;;;;;;;22.15;19.92;;;;;;;11.73;68.25;99977.63;5091821;28;20020;-47
2024/01/26 02:21:52;;;;;;;12.90;10.32;;;;;;;11.96;68.30;99982.94;5093098;28;20024;-47
2024/01/26 02:24:18;;;;;;;12.15;7.55;;;;;;;12.13;67.89;99991.50;5093013;28;20073;-47
2024/01/26 02:26:44;;;;;;;10.35;6.43;;;;;;;12.28;67.98;99981.00;5108556;28;20032;-47
2024/01/26 02:29:11;;;;;;;13.00;6.28;;;;;;;12.39;66.98;99980.56;5108613;28;20397;-47
2024/01/26 02:31:36;;;;;;;22.95;20.67;;;;;;;12.48;67.61;99986.56;5092915;28;20482;-47
2024/01/26 02:34:02;;;;;;;11.82;8.60;;;;;;;12.63;67.17;99987.38;5091474;28;20082;-47
2024/01/26 02:36:31;;;;;;;9.05;6.68;;;;;;;12.59;66.41;99994.00;5092615;28;20086;-47
2024/01/26 02:38:57;;;;;;;8.32;5.95;;;;;;;12.57;66.32;99996.00;5092820;28;20024;-47
2024/01/26 02:41:23;;;;;;;11.55;6.30;;;;;;;12.46;66.62;99996.47;5108303;28;20020;-47
2024/01/26 02:43:49;;;;;;;12.73;7.13;;;;;;;12.53;66.84;100002.63;5108322;28;20101;-46
2024/01/26 02:46:15;;;;;;;8.15;6.22;;;;;;;12.64;66.94;100010.09;5108206;28;20036;-47
2024/01/26 02:48:40;;;;;;;8.75;6.13;;;;;;;12.81;66.79;99996.75;5108263;28;20516;-47
2024/01/26 02:51:06;;;;;;;10.00;6.30;;;;;;;12.82;66.18;100004.47;5091247;28;20035;-46
2024/01/26 02:53:32;;;;;;;13.32;8.63;;;;;;;12.76;66.32;100018.38;5108195;28;20402;-47
2024/01/26 02:55:58;;;;;;;8.10;6.70;;;;;;;12.84;66.94;100012.16;5091546;28;20024;-47
2024/01/26 02:58:24;;;;;;;9.93;6.50;;;;;;;12.92;66.49;100017.38;5092386;28;20031;-47
2024/01/26 03:00:50;;;;;;;10.43;6.15;;;;;;;12.94;66.10;100018.81;5092408;28;20027;-46
2024/01/26 03:03:15;;;;;;;9.43;5.95;;;;;;;13.02;66.37;100017.91;5092274;28;20024;-47
2024/01/26 03:05:41;;;;;;;9.68;7.20;;;;;;;12.96;65.67;100016.81;5107831;28;20047;-47
2024/01/26 03:08:07;;;;;;;10.88;6.40;;;;;;;12.95;65.89;100027.53;5092240;28;20027;-46
2024/01/26 03:10:33;;;;;;;9.50;5.75;;;;;;;12.98;65.93;100024.53;5092222;28;20506;-47
2024/01/26 03:12:59;;;;;;;10.57;5.68;;;;;;;12.90;65.55;100020.19;5107841;28;20024;-47
2024/01/26 03:15:25;;;;;;;10.60;6.43;;;;;;;12.84;65.11;100023.53;5092124;28;20537;-47
2024/01/26 03:17:51;;;;;;;12.85;7.50;;;;;;;12.68;65.08;100029.81;5092024;28;20502;-47
2024/01/26 03:20:17;;;;;;;12.00;8.68;;;;;;;12.32;64.59;100027.84;5092058;28;20028;-47
2024/01/26 03:22:43;;;;;;;10.73;7.70;;;;;;;11.98;66.55;100025.66;5107748;28;20020;-47
2024/01/26 03:25:09;;;;;;;10.63;7.43;;;;;;;12.11;67.38;100025.91;5091891;28;20088;-47
2024/01/26 03:27:35;;;;;;;15.43;7.88;;;;;;;12.13;66.23;100029.16;5090730;28;20023;-47
2024/01/26 03:30:03;;;;;;;11.35;7.80;;;;;;;11.85;67.13;100028.03;5091997;28;20103;-47
2024/01/26 03:32:29;;;;;;;10.77;8.82;;;;;;;11.58;67.58;100043.31;5091921;28;20089;-47
2024/01/26 03:34:55;;;;;;;13.25;8.40;;;;;;;11.24;67.98;100044.47;5091938;28;20032;-47
2024/01/26 03:37:21;;;;;;;9.65;8.65;;;;;;;10.95;69.14;100038.00;5091576;28;20048;-46
2024/01/26 03:39:47;;;;;;;11.43;8.18;;;;;;;10.63;70.25;100043.34;5107468;28;20044;-46
2024/01/26 03:42:13;;;;;;;14.18;10.27;;;;;;;10.30;71.72;100041.59;5091722;28;20389;-46
2024/01/26 03:44:40;;;;;;;10.13;7.57;;;;;;;10.17;72.71;100046.47;5090522;28;20036;-47
2024/01/26 03:47:06;;;;;;;14.45;8.88;;;;;;;10.19;73.13;100057.63;5091701;28;20035;-47
2024/01/26 03:49:31;;;;;;;10.77;8.13;;;;;;;10.22;73.21;100066.97;5091777;28;20024;-47
2024/01/26 03:51:57;;;;;;;11.93;8.45;;;;;;;10.19;73.44;100066.31;5107445;28;20028;-47
2024/01/26 03:54:23;;;;;;;10.20;8.65;;;;;;;10.23;73.89;100066.00;5107384;28;20066;-46
2024/01/26 03:56:49;;;;;;;10.75;8.02;;;;;;;10.16;73.41;100074.53;5107377;28;20131;-47
2024/01/26 03:59:14;;;;;;;11.88;8.15;;;;;;;10.13;73.95;100072.22;5107366;28;20032;-46
2024/01/26 04:01:40;;;;;;;10.48;7.50;;;;;;;10.09;73.91;100085.81;5091696;28;20031;-47
2024/01/26 04:04:06;;;;;;;10.57;7.22;;;;;;;10.05;73.94;100081.88;5091693;28;20509;-47
2024/01/26 04:06:33;;;;;;;10.70;7.75;;;;;;;9.94;74.21;100090.88;5092504;28;20027;-46
2024/01/26 04:08:59;;;;;;;13.23;7.72;;;;;;;9.91;74.56;100086.78;5095687;28;20096;-47
2024/01/26 04:11:25;;;;;;;10.20;7.68;;;;;;;9.97;74.88;100087.94;5095500;28;20075;-46
2024/01/26 04:13:51;;;;;;;11.57;8.07;;;;;;;9.98;75.01;100087.78;5111262;28;20032;-46
2024/01/26 04:16:17;;;;;;;11.38;8.38;;;;;;;10.02;75.25;100083.03;5095450;28;20028;-47
2024/01/26 04:18:43;;;;;;;14.13;8.38;;;;;;;9.88;75.38;100083.63;5094270;28;20021;-46
2024/01/26 04:21:10;;;;;;;13.00;7.30;;;;;;;9.78;76.19;100083.81;5095433;28;20032;-47
2024/01/26 04:23:36;;;;;;;8.30;6.93;;;;;;;9.74;76.17;100088.53;5111130;28;20115;-46
2024/01/26 04:26:01;;;;;;;10.70;8.15;;;;;;;9.70;76.50;100084.59;5110966;28;20111;-46
2024/01/26 04:28:27;;;;;;;9.05;6.50;;;;;;;9.67;76.63;100090.16;5110996;28;20016;-46
2024/01/26 04:30:53;;;;;;;11.27;7.30;;;;;;;9.61;76.82;100082.94;5110923;28;20035;-48
2024/01/26 04:33:19;;;;;;;11.73;6.22;;;;;;;9.48;77.41;100093.88;5095147;28;20029;-49
2024/01/26 04:35:47;;;;;;;9.32;5.82;;;;;;;9.34;78.84;100084.81;5094922;28;20039;-49
2024/01/26 04:38:13;;;;;;;11.43;5.93;;;;;;;9.30;79.79;100083.47;5095129;28;20054;-49
2024/01/26 04:40:40;;;;;;;9.00;5.78;;;;;;;9.26;79.88;100081.34;5095048;28;20056;-48
2024/01/26 04:43:05;;;;;;;8.52;6.07;;;;;;;9.23;80.47;100073.78;5094984;28;20074;-49
2024/01/26 04:45:31;;;;;;;6.68;5.57;;;;;;;9.39;81.49;100076.47;5110632;28;20024;-48
2024/01/26 04:47:57;;;;;;;8.60;6.15;;;;;;;9.58;80.90;100070.16;5093602;28;20563;-49
2024/01/26 04:50:23;;;;;;;10.48;7.40;;;;;;;9.82;79.13;100055.44;5094789;28;20024;-49
2024/01/26 04:52:52;;;;;;;9.63;7.25;;;;;;;9.91;78.03;100054.50;5110563;28;20035;-49
2024/01/26 04:55:18;;;;;;;9.68;7.70;;;;;;;9.81;77.32;100065.13;5094779;28;20035;-49
2024/01/26 04:57:43;;;;;;;12.68;7.40;;;;;;;9.62;78.00;100066.25;5094737;28;20020;-49
2024/01/26 05:00:09;;;;;;;12.02;7.03;;;;;;;9.50;78.41;100064.91;5094683;28;20054;-49
2024/01/26 05:02:35;;;;;;;13.13;6.35;;;;;;;9.62;79.01;100066.25;5110329;28;20020;-49
2024/01/26 05:05:01;;;;;;;10.63;5.95;;;;;;;9.76;78.42;100070.84;5110257;28;20027;-49
2024/01/26 05:07:27;;;;;;;7.78;6.30;;;;;;;9.58;77.06;100067.53;5110140;28;20039;-49
2024/01/26 05:09:53;;;;;;;10.77;6.10;;;;;;;9.32;78.02;100083.34;5094535;28;20485;-48
2024/01/26 05:12:18;;;;;;;8.48;5.90;;;;;;;9.36;78.91;100082.84;5094348;28;20017;-49
2024/01/26 05:14:44;;;;;;;8.00;5.60;;;;;;;9.36;78.88;100087.28;5094475;28;20027;-48
2024/01/26 05:17:10;;;;;;;7.35;5.00;;;;;;;9.25;78.80;100085.75;5094202;28;20173;-49
2024/01/26 05:19:36;;;;;;;7.65;5.07;;;;;;;9.22;79.31;100095.75;5092258;28;20032;-49
2024/01/26 05:22:01;;;;;;;12.18;7.18;;;;;;;9.14;79.26;100099.13;5094265;28;20024;-49
2024/01/26 05:24:27;;;;;;;10.20;6.25;;;;;;;9.02;79.68;100109.03;5094212;28;20027;-49
2024/01/26 05:26:55;;;;;;;8.57;6.25;;;;;;;8.89;80.05;100112.06;5092758;28;20109;-49
2024/01/26 05:29:21;;;;;;;9.38;6.25;;;;;;;8.80;80.70;100120.84;5109812;28;20051;-48
2024/01/26 05:31:47;;;;;;;12.98;6.85;;;;;;;8.88;81.71;100120.91;5094071;28;20031;-48
2024/01/26 05:34:12;;;;;;;13.55;6.65;;;;;;;8.96;81.14;100113.09;5109705;28;20031;-49
2024/01/26 05:36:42;;;;;;;7.40;6.40;;;;;;;8.98;80.89;100108.53;5093727;28;20043;-49
2024/01/26 05:39:09;;;;;;;12.07;7.82;;;;;;;8.94;80.96;100128.13;5092708;28;20051;-49
2024/01/26 05:41:34;;;;;;;7.38;5.88;;;;;;;9.09;81.09;100119.72;5094126;28;20107;-48
2024/01/26 05:44:00;;;;;;;12.20;5.97;;;;;;;9.09;80.81;100125.75;5092521;28;20107;-49
2024/01/26 05:46:26;;;;;;;9.65;5.65;;;;;;;9.08;80.45;100124.13;5093699;28;20024;-49
2024/01/26 05:48:52;;;;;;;11.13;5.63;;;;;;;9.04;80.11;100129.84;5094319;28;20027;-49
2024/01/26 05:51:18;;;;;;;11.18;5.40;;;;;;;9.01;80.14;100123.09;5093653;28;20031;-49
2024/01/26 05:53:44;;;;;;;14.35;7.35;;;;;;;8.88;79.92;100131.38;5093659;28;20494;-48
2024/01/26 05:56:09;;;;;;;50.65;45.25;;;;;;;8.86;79.85;100122.03;5109218;28;20038;-49
2024/01/26 05:58:35;;;;;;;69.82;62.88;;;;;;;8.85;80.65;100130.84;5093526;28;20048;-49
2024/01/26 06:01:01;;;;;;;13.38;11.27;;;;;;;9.02;80.50;100127.38;5092179;28;20051;-49
2024/01/26 06:03:26;;;;;;;15.18;10.13;;;;;;;8.90;79.26;100139.91;5093391;28;20505;-48
2024/01/26 06:05:52;;;;;;;9.65;7.60;;;;;;;8.85;80.11;100144.75;5093325;28;20024;-49
2024/01/26 06:08:18;;;;;;;15.30;12.02;;;;;;;8.85;80.15;100142.13;5109063;28;20060;-49
2024/01/26 06:10:44;;;;;;;11.02;6.38;;;;;;;8.79;80.76;100148.84;5091922;28;20401;-49
2024/01/26 06:13:10;;;;;;;7.95;6.65;;;;;;;8.85;80.59;100152.59;5093278;28;20030;-48
2024/01/26 06:15:36;;;;;;;9.40;6.65;;;;;;;8.75;80.26;100157.13;5108847;28;20039;-49
2024/01/26 06:18:02;;;;;;;11.75;6.57;;;;;;;8.70;80.14;100156.78;5093073;28;20103;-49
2024/01/26 06:20:31;;;;;;;13.10;8.13;;;;;;;8.59;79.66;100168.28;5093131;28;20020;-48
2024/01/26 06:23:01;;;;;;;13.60;10.13;;;;;;;8.43;80.37;100176.84;5093165;28;20563;-48
2024/01/26 06:25:26;;;;;;;15.23;7.07;;;;;;;8.42;80.86;100175.16;5091674;28;20052;-48
2024/01/26 06:27:52;;;;;;;9.95;6.32;;;;;;;8.49;81.34;100172.75;5108697;28;20059;-48
2024/01/26 06:30:18;;;;;;;8.35;5.68;;;;;;;8.66;81.15;100176.38;5092697;28;20501;-49
2024/01/26 06:32:44;;;;;;;7.65;6.00;;;;;;;8.73;79.64;100177.38;5092855;28;20069;-49
2024/01/26 06:35:11;;;;;;;7.45;5.80;;;;;;;8.76;79.99;100174.47;5092718;28;20086;-49
2024/01/26 06:37:37;;;;;;;7.13;5.15;;;;;;;9.01;79.19;100172.84;5108208;28;20569;-48
2024/01/26 06:40:03;;;;;;;8.90;6.40;;;;;;;8.92;78.15;100176.41;5092766;28;20028;-47
2024/01/26 06:42:32;;;;;;;9.18;6.40;;;;;;;9.23;78.93;100176.75;5092729;28;20099;-47
2024/01/26 06:44:57;;;;;;;14.90;6.55;;;;;;;9.40;76.98;100170.66;5092720;28;20043;-46
2024/01/26 06:47:23;;;;;;;8.15;5.78;;;;;;;9.40;77.16;100167.22;5092520;28;20481;-46
2024/01/26 06:49:49;;;;;;;8.95;5.53;;;;;;;9.52;76.21;100167.75;5108217;28;20028;-46
2024/01/26 06:52:14;;;;;;;10.80;6.07;;;;;;;9.50;76.29;100165.28;5092519;28;20024;-47
2024/01/26 06:54:40;;;;;;;9.48;6.40;;;;;;;9.51;76.41;100159.06;5092518;28;20534;-46
2024/01/26 06:57:06;;;;;;;13.68;6.10;;;;;;;9.59;76.58;100166.13;5092724;28;20027;-46
2024/01/26 06:59:32;;;;;;;13.82;6.13;;;;;;;9.57;75.57;100165.47;5092404;28;20028;-46
2024/01/26 07:01:58;;;;;;;9.52;7.22;;;;;;;9.54;75.49;100168.44;5092414;28;20074;-47
2024/01/26 07:04:24;;;;;;;8.30;5.75;;;;;;;9.48;75.87;100163.81;5107994;28;20038;-47
2024/01/26 07:06:50;;;;;;;10.82;6.90;;;;;;;9.58;75.70;100157.47;5092249;28;20016;-47
2024/01/26 07:09:16;;;;;;;16.30;9.57;;;;;;;9.67;75.29;100160.94;5092269;28;20034;-47
2024/01/26 07:11:42;;;;;;;23.77;20.25;;;;;;;9.68;74.98;100164.38;5092250;28;20027;-46
2024/01/26 07:14:09;;;;;;;14.45;12.95;;;;;;;9.69;74.89;100164.22;5090875;28;20020;-46
2024/01/26 07:16:34;;;;;;;11.35;6.80;;;;;;;9.75;74.49;100168.81;5092053;28;20112;-46
2024/01/26 07:19:00;;;;;;;10.73;8.35;;;;;;;9.80;74.23;100165.75;5092090;28;20020;-46
2024/01/26 07:21:26;;;;;;;11.18;6.82;;;;;;;9.80;74.32;100171.81;5092072;28;20506;-46
2024/01/26 07:23:52;;;;;;;9.88;6.55;;;;;;;9.83;74.17;100180.34;5092048;28;20027;-46
2024/01/26 07:26:19;;;;;;;8.75;5.90;;;;;;;9.86;73.58;100177.38;5091938;28;20112;-47
2024/01/26 07:28:46;;;;;;;12.98;6.15;;;;;;;9.85;74.00;100176.56;5091961;28;20035;-47
2024/01/26 07:31:11;;;;;;;14.45;6.80;;;;;;;9.79;74.09;100164.09;5091968;28;20070;-47
2024/01/26 07:33:37;;;;;;;12.18;6.13;;;;;;;9.71;74.40;100169.31;5107651;28;20028;-47
2024/01/26 07:36:03;;;;;;;11.27;6.53;;;;;;;9.71;74.31;100174.56;5090421;28;20044;-49
2024/01/26 07:38:29;;;;;;;7.93;6.07;;;;;;;9.60;74.69;100167.81;5091898;28;20036;-49
2024/01/26 07:40:57;;;;;;;58.67;53.00;;;;;;;9.55;74.76;100165.63;5091355;28;20035;-49
2024/01/26 07:43:23;;;;;;;16.05;13.18;;;;;;;9.48;75.29;100176.91;5091853;28;20103;-49
2024/01/26 07:45:49;;;;;;;17.23;10.27;;;;;;;9.47;75.54;100167.41;5091719;28;20031;-48
2024/01/26 07:48:15;;;;;;;10.85;7.03;;;;;;;9.49;75.37;100181.16;5092048;28;20025;-46
2024/01/26 07:50:45;;;;;;;11.60;8.63;;;;;;;9.35;75.31;100183.38;5091791;28;20016;-46
2024/01/26 07:53:11;;;;;;;10.95;7.35;;;;;;;9.35;76.18;100178.13;5091716;28;20383;-46
2024/01/26 07:55:37;;;;;;;11.98;6.88;;;;;;;9.44;76.17;100175.56;5091681;28;20040;-46
2024/01/26 07:58:03;;;;;;;12.88;6.78;;;;;;;9.46;76.26;100165.78;5091723;28;20032;-46
2024/01/26 08:00:29;;;;;;;13.75;8.40;;;;;;;9.54;76.61;100173.66;5091689;28;20046;-47
2024/01/26 08:02:55;;;;;;;28.98;25.85;;;;;;;9.65;75.82;100183.84;5107272;28;20032;-47
2024/01/26 08:05:21;;;;;;;16.65;12.80;;;;;;;9.64;75.26;100174.38;5091543;28;20024;-47
2024/01/26 08:07:47;;;;;;;10.48;7.63;;;;;;;9.65;75.63;100185.66;5091583;28;20034;-47
2024/01/26 08:10:13;;;;;;;11.27;7.70;;;;;;;9.71;75.50;100187.66;5107148;28;20028;-49
2024/01/26 08:12:40;;;;;;;13.13;7.35;;;;;;;9.84;75.83;100195.06;5091452;28;20020;-49
2024/01/26 08:15:07;;;;;;;10.07;7.00;;;;;;;9.99;74.98;100196.94;5091495;28;20051;-49
2024/01/26 08:17:33;;;;;;;9.75;7.10;;;;;;;10.05;74.42;100205.16;5091762;28;20020;-48
2024/01/26 08:20:01;;;;;;;9.63;6.90;;;;;;;10.21;74.41;100207.81;5091507;28;20490;-48
2024/01/26 08:22:27;;;;;;;13.15;7.18;;;;;;;10.36;73.93;100200.16;5091478;28;20490;-48
2024/01/26 08:24:52;;;;;;;12.23;7.10;;;;;;;10.53;73.88;100199.22;5090500;28;20032;-47
2024/01/26 08:27:18;;;;;;;20.15;7.40;;;;;;;10.79;73.61;100201.69;5091348;28;20517;-47
2024/01/26 08:29:44;;;;;;;14.80;6.72;;;;;;;11.01;72.64;100199.41;5091395;28;20028;-47
2024/01/26 08:32:10;;;;;;;17.60;6.35;;;;;;;11.18;72.18;100198.38;5106979;28;20493;-47
2024/01/26 08:34:38;;;;;;;13.88;7.03;;;;;;;11.59;71.65;100195.66;5091382;28;20085;-47
2024/01/26 08:37:04;;;;;;;13.63;6.70;;;;;;;11.87;70.52;100197.03;5091047;28;20048;-47
2024/01/26 08:39:30;;;;;;;14.55;6.97;;;;;;;12.38;69.50;100198.25;5091305;28;20024;-46
2024/01/26 08:41:57;;;;;;;12.63;7.75;;;;;;;12.89;65.75;100194.25;5091365;28;20051;-47
2024/01/26 08:44:23;;;;;;;9.80;6.35;;;;;;;12.79;64.25;100186.59;5091474;28;20390;-48
2024/01/26 08:46:49;;;;;;;12.20;7.50;;;;;;;12.54;64.30;100189.44;5091150;28;20089;-49
2024/01/26 08:49:15;;;;;;;14.57;7.00;;;;;;;12.33;64.83;100187.41;5090026;28;20142;-48
2024/01/26 08:51:41;;;;;;;19.52;7.68;;;;;;;12.27;65.95;100189.94;5091191;28;20077;-48
2024/01/26 08:54:12;;;;;;;10.93;8.25;;;;;;;12.34;66.91;100185.63;5093150;28;20016;-48
2024/01/26 08:56:41;;;;;;;12.63;7.78;;;;;;;12.52;66.04;100188.78;5094854;28;20036;-48
2024/01/26 08:59:08;;;;;;;13.70;7.93;;;;;;;12.40;65.61;100179.66;5094767;28;20020;-48
2024/01/26 09:01:38;;;;;;;13.52;8.00;;;;;;;12.24;66.53;100179.78;5110384;28;20027;-49
2024/01/26 09:04:08;;;;;;;14.25;8.98;;;;;;;12.61;66.31;100178.19;5094931;28;20016;-49
2024/01/26 09:06:37;;;;;;;16.55;7.82;;;;;;;13.70;64.68;100181.25;5094515;28;20486;-48
2024/01/26 09:09:03;;;;;;;15.15;7.13;;;;;;;14.80;61.94;100182.03;5094548;28;20522;-47
2024/01/26 09:11:32;;;;;;;12.55;6.53;;;;;;;15.19;59.63;100192.06;5094535;28;20111;-47
2024/01/26 09:13:58;;;;;;;11.63;7.13;;;;;;;14.93;59.72;100198.81;5110226;28;20107;-47
2024/01/26 09:16:24;;;;;;;13.65;7.90;;;;;;;14.82;60.07;100203.81;5094454;28;20115;-47
2024/01/26 09:18:52;;;;;;;11.35;7.15;;;;;;;15.17;59.95;100194.09;5094395;28;20064;-47
2024/01/26 09:21:18;;;;;;;26.85;7.32;;;;;;;15.34;58.84;100198.06;5094316;28;20516;-47
2024/01/26 09:23:44;;;;;;;13.52;6.88;;;;;;;15.45;58.58;100187.97;5094331;28;20024;-47
2024/01/26 09:26:10;;;;;;;11.05;6.43;;;;;;;15.65;57.44;100186.22;5109706;28;20035;-47
2024/01/26 09:28:37;;;;;;;14.68;8.35;;;;;;;16.09;56.63;100177.06;5094198;28;20024;-48
2024/01/26 09:31:04;;;;;;;21.48;11.52;;;;;;;16.41;55.57;100180.00;5109764;28;20024;-49
2024/01/26 09:33:30;;;;;;;17.83;7.95;;;;;;;16.22;55.58;100191.34;5094026;28;20028;-49
2024/01/26 09:35:56;;;;;;;12.00;7.00;;;;;;;16.43;55.47;100188.56;5093767;28;20036;-48
2024/01/26 09:38:24;;;;;;;12.70;7.32;;;;;;;17.06;54.61;100192.69;5094012;28;20103;-49
2024/01/26 09:40:50;;;;;;;13.02;8.52;;;;;;;17.11;53.19;100200.84;5093965;28;20098;-47
2024/01/26 09:43:16;;;;;;;15.93;8.55;;;;;;;17.08;53.21;100188.81;5109545;28;20051;-47
2024/01/26 09:45:43;;;;;;;19.10;8.85;;;;;;;17.10;53.29;100191.25;5093760;28;20494;-47
2024/01/26 09:48:09;;;;;;;14.85;7.38;;;;;;;17.48;52.86;100198.53;5093823;28;20436;-47
2024/01/26 09:50:36;;;;;;;15.50;7.93;;;;;;;17.86;51.78;100195.19;5092434;28;20138;-47
2024/01/26 09:53:05;;;;;;;13.23;7.93;;;;;;;18.37;51.11;100204.91;5109368;28;20077;-44
2024/01/26 09:55:32;;;;;;;15.85;8.43;;;;;;;18.95;49.89;100199.44;5093645;28;20020;-45
2024/01/26 09:57:58;;;;;;;19.83;7.18;;;;;;;19.35;47.45;100196.38;5093588;28;20091;-45
2024/01/26 10:00:24;;;;;;;15.35;7.90;;;;;;;19.41;46.34;100197.34;5093541;28;20039;-45
2024/01/26 10:02:50;;;;;;;10.18;7.22;;;;;;;19.25;47.11;100195.25;5093508;28;20054;-45
2024/01/26 10:05:20;;;;;;;15.60;8.07;;;;;;;18.85;47.80;100195.59;5092948;28;20073;-46
2024/01/26 10:07:46;;;;;;;12.27;7.10;;;;;;;18.42;48.54;100196.31;5093349;28;20043;-46
2024/01/26 10:10:12;;;;;;;26.83;20.42;;;;;;;18.25;49.62;100201.31;5093324;28;20019;-45
2024/01/26 10:12:38;;;;;;;39.17;33.88;;;;;;;18.12;49.92;100202.22;5091929;28;20490;-45
2024/01/26 10:15:09;;;;;;;50.95;41.83;;;;;;;18.10;50.63;100193.63;5093126;28;20030;-45
2024/01/26 10:17:35;;;;;;;38.47;30.90;;;;;;;18.21;50.28;100189.47;5075033;28;20413;-45
2024/01/26 10:20:15;;;;;;;40.58;34.30;;;;;;;18.41;50.25;100184.88;5093200;28;20103;-45
2024/01/26 10:22:45;;;;;;;42.28;35.00;;;;;;;18.89;49.24;100181.66;5093101;28;20549;-45
2024/01/26 10:25:13;;;;;;;44.60;38.63;;;;;;;19.38;48.04;100179.16;5092051;28;20359;-45
2024/01/26 10:27:39;;;;;;;30.48;27.38;;;;;;;19.64;46.83;100183.38;5092966;28;20024;-45
2024/01/26 10:30:05;;;;;;;41.20;36.78;;;;;;;20.26;46.24;100185.88;5092880;28;20019;-45
2024/01/26 10:32:32;;;;;;;33.70;30.13;;;;;;;20.85;45.58;100191.34;5092928;28;20082;-47
2024/01/26 10:35:02;;;;;;;20.10;12.07;;;;;;;21.28;44.72;100187.50;5092918;28;20032;-45
2024/01/26 10:37:31;;;;;;;20.83;14.00;;;;;;;21.53;44.37;100186.44;5091511;28;20098;-47
2024/01/26 10:39:58;;;;;;;18.33;13.05;;;;;;;21.89;43.02;100182.66;5092778;28;20074;-47
2024/01/26 10:42:26;;;;;;;20.17;12.75;;;;;;;21.96;42.87;100190.53;5091367;28;20042;-47
2024/01/26 10:44:54;;;;;;;17.23;13.57;;;;;;;22.37;42.49;100196.63;5092664;28;20024;-47
2024/01/26 10:47:21;;;;;;;25.00;18.00;;;;;;;22.97;41.30;100205.09;5091190;28;20024;-47
2024/01/26 10:49:51;;;;;;;21.67;10.30;;;;;;;23.30;40.38;100198.91;5092886;28;20028;-47
2024/01/26 10:52:18;;;;;;;12.40;6.55;;;;;;;23.52;40.63;100199.75;5092575;28;20498;-45
2024/01/26 10:54:46;;;;;;;20.23;6.55;;;;;;;23.59;42.19;100204.13;5074420;28;20024;-45
2024/01/26 10:57:12;;;;;;;10.75;6.82;;;;;;;23.53;43.40;100206.72;5092422;28;20020;-45
2024/01/26 10:59:41;;;;;;;12.82;5.97;;;;;;;23.43;43.88;100214.63;5091265;28;20035;-45
2024/01/26 11:02:22;;;;;;;18.25;6.32;;;;;;;23.28;42.74;100222.44;5091067;28;20607;-45
2024/01/26 11:04:49;;;;;;;24.52;13.13;;;;;;;23.08;42.79;100217.59;5092447;28;20539;-45
2024/01/26 11:07:18;;;;;;;18.17;6.03;;;;;;;23.01;41.57;100224.97;5090934;28;20024;-47
2024/01/26 11:09:46;;;;;;;18.27;7.35;;;;;;;22.69;41.92;100214.84;5091042;28;20030;-47
2024/01/26 11:12:25;;;;;;;8.20;4.78;;;;;;;22.67;41.82;100209.72;5092173;28;20050;-47
2024/01/26 11:15:06;;;;;;;12.45;5.20;;;;;;;22.65;41.55;100200.31;5092179;28;20035;-47
2024/01/26 11:17:52;;;;;;;11.00;5.72;;;;;;;22.49;41.31;100191.22;5091401;28;20047;-46
2024/01/26 11:20:26;;;;;;;9.98;4.38;;;;;;;22.17;41.09;100182.88;5092014;28;20038;-47
2024/01/26 11:23:11;;;;;;;10.60;8.07;;;;;;;21.81;41.84;100176.84;5092182;28;20028;-45